GBYD Airport Information

Runway Information
Runway 14 Length 11811 ft width 148 ft
Elevation 88 ft Threshold 0 ft Heading 131
Runway 32 Length 11811 ft Width 148 ft
Elevation 74 ft Threshold 0 ft Heading 311
Airport Frequencies
Type APP Name APP Frequency 121.3 MHZ
Type GND Name GND Frequency 121.9 MHZ
Type TWR Name TWR Frequency 118.3 MHZ
Airport Navaids
Type VOR-DME Name Banjul Frequency 112900 KHZ
Type NDB Name Banjul Frequency 256 KHZ
Airport Weather Information & NOTAM
ADDS - METARS form results

(0817 UTC 07 July 2020)
Data provider http://aviationweather.gov/metar/data/
 
METAR text: GBYD 070800Z 00000KT 9999 FWE011 SCT110 27/25 Q1011
Conditions at: GBYD (BANJUL/YUNDUM IN, GM) observed 0800 UTC 07 July 2020
Temperature: 27.0°C (81°F)
Dewpoint: 25.0°C (77°F) [RH = 89%]
Pressure (altimeter): 29.85 inches Hg (1011.0 mb)
Winds: calm
Visibility: 6 or more miles (10+ km)
Ceiling: at least 12,000 feet AGL
Clouds: scattered clouds at 11000 feet AGL
Weather: no significant weather observed at this time

Forecast for: GBYD (BANJUL/YUNDUM IN, GM)
Text: TAF GBYD 070530Z 0706/0812 27006KT 9999 SCT012
Forecast period: 0600 UTC 07 July 2020 to 1200 UTC 08 July 2020
Forecast type: FROM: standard forecast or significant change
Winds: from the W (270 degrees) at 7 MPH (6 knots; 3.1 m/s)
Visibility: 6 or more miles 10+ km)
Ceiling: at least 12,000 feet AGL
Clouds: scattered clouds at 1200 feet AGL
Weather: no significant weather forecast for this period